This is the latest recevied weather packets stored in our database for station/object OM8AKX-4. If no packets are shown the sender has not sent any weather packets the latest 10 day(s).
| Time | Temp. | Humidity | Pressure | Rain* | Wind** | Luminosity | Snow |
|---|---|---|---|---|---|---|---|
| 1777111122 | 11.11° C | 54% | 873.3 hPa | - | - | - | - |
| 1777110222 | 11.11° C | 54% | 873.3 hPa | - | - | - | - |
| 1777109322 | 11.11° C | 54% | 873.2 hPa | - | - | - | - |
| 1777108422 | 11.11° C | 54% | 873.3 hPa | - | - | - | - |
| 1777107522 | 10.56° C | 56% | 873.2 hPa | - | - | - | - |
| 1777106621 | 10° C | 57% | 873.3 hPa | - | - | - | - |
| 1777105721 | 10° C | 56% | 873.3 hPa | - | - | - | - |
| 1777104821 | 10° C | 56% | 873.3 hPa | - | - | - | - |
| 1777103921 | 10° C | 54% | 873.3 hPa | - | - | - | - |
| 1777103021 | 10.56° C | 55% | 873.3 hPa | - | - | - | - |
| 1777102124 | 10.56° C | 55% | 873.5 hPa | - | - | - | - |
| 1777101223 | 9.44° C | 56% | 873.5 hPa | - | - | - | - |
| 1777100323 | 9.44° C | 56% | 873.6 hPa | - | - | - | - |
| 1777099423 | 9.44° C | 54% | 873.4 hPa | - | - | - | - |
| 1777098523 | 10.56° C | 53% | 873.4 hPa | - | - | - | - |
| 1777097623 | 10° C | 55% | 873.5 hPa | - | - | - | - |
| 1777096723 | 10° C | 54% | 873.5 hPa | - | - | - | - |
| 1777095823 | 11.67° C | 52% | 873.4 hPa | - | - | - | - |
| 1777094923 | 10.56° C | 56% | 873.3 hPa | - | - | - | - |
| 1777094023 | 6.67° C | 68% | 873.5 hPa | - | - | - | - |
| 1777093123 | 6.11° C | 68% | 873.2 hPa | - | - | - | - |
| 1777092223 | 5.56° C | 73% | 873.3 hPa | - | - | - | - |
| 1777091323 | 5° C | 78% | 873.2 hPa | - | - | - | - |
| 1777090423 | 3.89° C | 83% | 873.3 hPa | - | - | - | - |
| 1777089522 | 3.89° C | 84% | 873.3 hPa | - | - | - | - |
* Rain since midnight (hover to see other rain measurements)
** Current wind speed in m/s (hover to see current wind gust speed)